Kunsan Air Base
RKJK : now visible

Airfield :











YOU CAN JOIN US ON...

 
LOGIN :

Register | Disclaimer

   EN    FR    IT 

 









Legend :    VFR   Marginal VFR   IFR   Intensive IFR   Very Intensive IFR
Visi :
Ceiling :
>= 8 km
>= 3000ft
5 to 8 km
1000 to 3000 ft
1500m to 5 km
500 to 1000 ft
800 to 1500m
200 to 500 ft
< 800m
< 200 ft
Symbols :   Thunderstorms  Fog  Heavy snow  Heavy precipitations  Wind > 20 kt






- Airport Elevation : 29 ft
- IATA code : KUV


RKJK - Kunsan Air Base

CURRENT METAR :
  • 250455Z 28008KT 6SM HZ FEW120 SCT140 BKN170 BKN200 26/16 A2985 RMK AO2A SLP112 T02590161 $

EXPIRED METARs :
  • 250355Z 27006KT 6SM HZ FEW100 SCT130 SCT150 BKN170 BKN200 25/17 A2986 RMK AO2A SLP115 T02490171 $
  • 250256Z 25007KT 6SM HZ FEW120 SCT150 SCT180 BKN210 24/18 A2985 RMK SLP112 T02440181 58001 $
  • 250155Z 28005KT 6SM HZ FEW140 SCT160 SCT180 BKN200 24/19 A2985 RMK AO2A SLP112 T02440185 $
  • 250055Z 29006KT 6SM HZ FEW180 BKN200 24/19 A2986 RMK AO2A SLP116 T02390192 $

TAF TAF RKJK
Valid from the 25 at 00:00 until the 26 at 06:00 UTC


250000Z 2500/2606 29006KT 9000 HZ FEW140 BKN200 QNH2983INS
BECMG 2503/2504 28012KT 9000 HZ FEW150 BKN200 QNH2985INS
BECMG 2507/2508 27010KT 9000 HZ SCT025 BKN210 QNH2989INS
BECMG 2514/2515 32008KT 9999 NSW SCT040 SCT250 QNH2993INS
BECMG 2519/2521 01006KT 9999 SCT250 QNH2995INS TX26/2505Z TN19/2519Z
RKRR FIR / Asia



MET'MAP, your aeronautical weather chart ! - Copyright ORBIFLY December 2007 - Disclaimer

ORBIFLY MET'MAP TEAM :

Programming & Development : Alexandra Zaïnal
Original concept : Baudouin d'Aumeries
Technical & hardware support : Manuel Goepfert
Assistance : Marc-Olivier Méhu




SOURCES & CREDITS :

   NOAA       Earth
Advisory